sensor_id;sensor_type;location;lat;lon;timestamp;pressure;altitude;pressure_sealevel;temperature;humidity
7662;BME280;30314;48.184;11.510;2022-09-24T00:01:40;95710.56;;;8.76;100.00
7662;BME280;30314;48.184;11.510;2022-09-24T00:04:10;95705.88;;;8.67;100.00
7662;BME280;30314;48.184;11.510;2022-09-24T00:06:40;95711.16;;;8.67;100.00
7662;BME280;30314;48.184;11.510;2022-09-24T00:09:08;95710.66;;;8.65;100.00
7662;BME280;30314;48.184;11.510;2022-09-24T00:11:37;95705.38;;;8.65;100.00
7662;BME280;30314;48.184;11.510;2022-09-24T00:14:06;95708.03;;;8.65;100.00
7662;BME280;30314;48.184;11.510;2022-09-24T00:16:34;95703.91;;;8.59;100.00
7662;BME280;30314;48.184;11.510;2022-09-24T00:19:03;95699.63;;;8.63;100.00
7662;BME280;30314;48.184;11.510;2022-09-24T00:21:33;95700.97;;;8.60;100.00
7662;BME280;30314;48.184;11.510;2022-09-24T00:24:04;95693.84;;;8.61;100.00
7662;BME280;30314;48.184;11.510;2022-09-24T00:26:32;95699.38;;;8.59;100.00
7662;BME280;30314;48.184;11.510;2022-09-24T00:29:18;95699.63;;;8.63;100.00
7662;BME280;30314;48.184;11.510;2022-09-24T00:31:47;95693.84;;;8.61;100.00
7662;BME280;30314;48.184;11.510;2022-09-24T00:34:17;95696.25;;;8.57;100.00
7662;BME280;30314;48.184;11.510;2022-09-24T00:36:45;95695.25;;;8.53;100.00
7662;BME280;30314;48.184;11.510;2022-09-24T00:39:14;95695.69;;;8.60;100.00
7662;BME280;30314;48.184;11.510;2022-09-24T00:41:42;95692.56;;;8.58;100.00
7662;BME280;30314;48.184;11.510;2022-09-24T00:47:31;95687.78;;;8.60;100.00
7662;BME280;30314;48.184;11.510;2022-09-24T00:50:07;95686.50;;;8.58;100.00
7662;BME280;30314;48.184;11.510;2022-09-24T00:52:39;95679.44;;;8.53;100.00
7662;BME280;30314;48.184;11.510;2022-09-24T00:55:08;95674.75;;;8.50;100.00
7662;BME280;30314;48.184;11.510;2022-09-24T00:57:37;95675.75;;;8.54;100.00
7662;BME280;30314;48.184;11.510;2022-09-24T01:00:06;95674.19;;;8.53;100.00
7662;BME280;30314;48.184;11.510;2022-09-24T01:02:36;95671.03;;;8.51;100.00
7662;BME280;30314;48.184;11.510;2022-09-24T01:05:07;95673.69;;;8.46;100.00
7662;BME280;30314;48.184;11.510;2022-09-24T01:07:36;95668.41;;;8.46;100.00
7662;BME280;30314;48.184;11.510;2022-09-24T01:10:04;95669.78;;;8.43;100.00
7662;BME280;30314;48.184;11.510;2022-09-24T01:12:40;95659.50;;;8.42;100.00
7662;BME280;30314;48.184;11.510;2022-09-24T01:15:16;95658.50;;;8.38;100.00
7662;BME280;30314;48.184;11.510;2022-09-24T01:17:53;95653.75;;;8.40;100.00
7662;BME280;30314;48.184;11.510;2022-09-24T01:23:54;95656.72;;;8.33;100.00
7662;BME280;30314;48.184;11.510;2022-09-24T01:26:48;95645.94;;;8.29;100.00
7662;BME280;30314;48.184;11.510;2022-09-24T01:32:38;95646.34;;;8.17;100.00
7662;BME280;30314;48.184;11.510;2022-09-24T01:35:11;95648.91;;;8.23;100.00
7662;BME280;30314;48.184;11.510;2022-09-24T01:37:48;95644.44;;;8.23;100.00
7662;BME280;30314;48.184;11.510;2022-09-24T01:40:20;95637.59;;;8.22;100.00
7662;BME280;30314;48.184;11.510;2022-09-24T01:42:50;95639.28;;;8.13;100.00
7662;BME280;30314;48.184;11.510;2022-09-24T01:45:19;95624.91;;;8.00;100.00
7662;BME280;30314;48.184;11.510;2022-09-24T01:47:48;95624.59;;;8.07;100.00
7662;BME280;30314;48.184;11.510;2022-09-24T01:50:18;95619.38;;;8.01;100.00
7662;BME280;30314;48.184;11.510;2022-09-24T01:52:50;95619.88;;;8.03;100.00
7662;BME280;30314;48.184;11.510;2022-09-24T01:55:23;95593.97;;;7.86;100.00
7662;BME280;30314;48.184;11.510;2022-09-24T01:57:55;95620.72;;;7.99;100.00
7662;BME280;30314;48.184;11.510;2022-09-24T02:00:25;95624.16;;;7.99;100.00
7662;BME280;30314;48.184;11.510;2022-09-24T02:02:57;95618.59;;;8.01;100.00
7662;BME280;30314;48.184;11.510;2022-09-24T02:05:30;95615.19;;;8.00;100.00
7662;BME280;30314;48.184;11.510;2022-09-24T02:08:04;95609.41;;;7.98;100.00
7662;BME280;30314;48.184;11.510;2022-09-24T02:10:37;95616.25;;;7.99;100.00
7662;BME280;30314;48.184;11.510;2022-09-24T02:13:09;95599.72;;;7.94;100.00
7662;BME280;30314;48.184;11.510;2022-09-24T02:15:41;95605.97;;;7.98;100.00
7662;BME280;30314;48.184;11.510;2022-09-24T02:18:12;95607.31;;;7.95;100.00
7662;BME280;30314;48.184;11.510;2022-09-24T02:20:42;95603.66;;;7.96;100.00
7662;BME280;30314;48.184;11.510;2022-09-24T02:23:11;95599.41;;;7.95;100.00
7662;BME280;30314;48.184;11.510;2022-09-24T02:25:45;95595.84;;;7.86;100.00
7662;BME280;30314;48.184;11.510;2022-09-24T02:28:16;95593.97;;;7.86;100.00
7662;BME280;30314;48.184;11.510;2022-09-24T02:30:47;95600.38;;;7.80;100.00
7662;BME280;30314;48.184;11.510;2022-09-24T02:33:19;95594.63;;;7.73;100.00
7662;BME280;30314;48.184;11.510;2022-09-24T02:36:05;95599.91;;;7.73;100.00
7662;BME280;30314;48.184;11.510;2022-09-24T02:38:33;95592.31;;;7.71;100.00
7662;BME280;30314;48.184;11.510;2022-09-24T02:41:01;95590.19;;;7.68;100.00
7662;BME280;30314;48.184;11.510;2022-09-24T02:43:29;95596.03;;;7.65;100.00
7662;BME280;30314;48.184;11.510;2022-09-24T02:46:00;95591.25;;;7.67;100.00
7662;BME280;30314;48.184;11.510;2022-09-24T02:48:29;95591.78;;;7.69;100.00
7662;BME280;30314;48.184;11.510;2022-09-24T02:50:57;95571.59;;;7.59;100.00
7662;BME280;30314;48.184;11.510;2022-09-24T02:53:24;95585.78;;;7.64;100.00
7662;BME280;30314;48.184;11.510;2022-09-24T02:55:55;95585.56;;;7.60;100.00
7662;BME280;30314;48.184;11.510;2022-09-24T02:58:25;95580.28;;;7.60;100.00
7662;BME280;30314;48.184;11.510;2022-09-24T03:00:53;95583.38;;;7.67;100.00
7662;BME280;30314;48.184;11.510;2022-09-24T03:03:22;95580.75;;;7.67;100.00
7662;BME280;30314;48.184;11.510;2022-09-24T03:05:51;95574.41;;;7.68;100.00
7662;BME280;30314;48.184;11.510;2022-09-24T03:08:21;95565.47;;;7.69;100.00
7662;BME280;30314;48.184;11.510;2022-09-24T03:10:50;95577.50;;;7.75;100.00
7662;BME280;30314;48.184;11.510;2022-09-24T03:13:18;95579.34;;;7.75;100.00
7662;BME280;30314;48.184;11.510;2022-09-24T03:15:46;95579.09;;;7.76;100.00
7662;BME280;30314;48.184;11.510;2022-09-24T03:18:14;95574.88;;;7.75;100.00
7662;BME280;30314;48.184;11.510;2022-09-24T03:20:42;95577.25;;;7.77;100.00
7662;BME280;30314;48.184;11.510;2022-09-24T03:23:11;95574.81;;;7.81;100.00
7662;BME280;30314;48.184;11.510;2022-09-24T03:25:38;95572.16;;;7.86;100.00
7662;BME280;30314;48.184;11.510;2022-09-24T03:28:06;95578.97;;;7.87;100.00
7662;BME280;30314;48.184;11.510;2022-09-24T03:30:34;95575.38;;;7.78;100.00
7662;BME280;30314;48.184;11.510;2022-09-24T03:33:19;95587.66;;;7.87;100.00
7662;BME280;30314;48.184;11.510;2022-09-24T03:35:47;95580.56;;;7.88;100.00
7662;BME280;30314;48.184;11.510;2022-09-24T03:38:16;95578.41;;;7.90;100.00
7662;BME280;30314;48.184;11.510;2022-09-24T03:40:44;95580.50;;;7.93;100.00
7662;BME280;30314;48.184;11.510;2022-09-24T03:43:11;95575.72;;;7.95;100.00
7662;BME280;30314;48.184;11.510;2022-09-24T03:45:39;95578.31;;;8.00;100.00
7662;BME280;30314;48.184;11.510;2022-09-24T03:48:07;95570.66;;;8.04;100.00
7662;BME280;30314;48.184;11.510;2022-09-24T03:50:35;95575.69;;;8.00;100.00
7662;BME280;30314;48.184;11.510;2022-09-24T03:53:03;95558.81;;;8.01;100.00
7662;BME280;30314;48.184;11.510;2022-09-24T03:55:32;95567.69;;;8.11;100.00
7662;BME280;30314;48.184;11.510;2022-09-24T03:58:00;95570.34;;;8.06;100.00
7662;BME280;30314;48.184;11.510;2022-09-24T04:00:28;95570.34;;;8.06;100.00
7662;BME280;30314;48.184;11.510;2022-09-24T04:02:55;95555.00;;;8.13;100.00
7662;BME280;30314;48.184;11.510;2022-09-24T04:05:23;95560.66;;;8.25;100.00
7662;BME280;30314;48.184;11.510;2022-09-24T04:07:51;95524.09;;;7.99;100.00
7662;BME280;30314;48.184;11.510;2022-09-24T04:10:19;95516.69;;;8.01;100.00
7662;BME280;30314;48.184;11.510;2022-09-24T04:12:48;95555.31;;;8.30;100.00
7662;BME280;30314;48.184;11.510;2022-09-24T04:15:16;95447.13;;;7.64;100.00
7662;BME280;30314;48.184;11.510;2022-09-24T04:17:48;95546.13;;;8.28;100.00
7662;BME280;30314;48.184;11.510;2022-09-24T04:20:16;95549.22;;;8.35;100.00
7662;BME280;30314;48.184;11.510;2022-09-24T04:22:48;95541.53;;;8.39;100.00
7662;BME280;30314;48.184;11.510;2022-09-24T04:25:16;95545.25;;;8.38;100.00
7662;BME280;30314;48.184;11.510;2022-09-24T04:27:44;95540.75;;;8.38;100.00
7662;BME280;30314;48.184;11.510;2022-09-24T04:30:14;95545.16;;;8.43;100.00
7662;BME280;30314;48.184;11.510;2022-09-24T04:32:42;95544.09;;;8.44;100.00
7662;BME280;30314;48.184;11.510;2022-09-24T04:35:10;95532.34;;;8.36;100.00
7662;BME280;30314;48.184;11.510;2022-09-24T04:37:37;95544.59;;;8.46;100.00
7662;BME280;30314;48.184;11.510;2022-09-24T04:40:06;95540.63;;;8.49;100.00
7662;BME280;30314;48.184;11.510;2022-09-24T04:42:38;95534.63;;;8.43;100.00
7662;BME280;30314;48.184;11.510;2022-09-24T04:45:07;95549.03;;;8.51;100.00
7662;BME280;30314;48.184;11.510;2022-09-24T04:47:36;95472.78;;;7.97;100.00
7662;BME280;30314;48.184;11.510;2022-09-24T04:50:07;95530.03;;;8.54;100.00
7662;BME280;30314;48.184;11.510;2022-09-24T04:52:37;95539.13;;;8.62;100.00
7662;BME280;30314;48.184;11.510;2022-09-24T04:55:06;95447.19;;;8.02;100.00
7662;BME280;30314;48.184;11.510;2022-09-24T04:57:33;95535.47;;;8.63;100.00
7662;BME280;30314;48.184;11.510;2022-09-24T05:00:02;95527.81;;;8.61;100.00
7662;BME280;30314;48.184;11.510;2022-09-24T05:02:31;95536.84;;;8.74;100.00
7662;BME280;30314;48.184;11.510;2022-09-24T05:05:00;95551.41;;;8.71;100.00
7662;BME280;30314;48.184;11.510;2022-09-24T05:07:28;95490.31;;;8.50;100.00
7662;BME280;30314;48.184;11.510;2022-09-24T05:09:56;95522.78;;;8.65;100.00
7662;BME280;30314;48.184;11.510;2022-09-24T05:12:23;95513.81;;;8.66;100.00
7662;BME280;30314;48.184;11.510;2022-09-24T05:14:51;95482.50;;;8.40;100.00
7662;BME280;30314;48.184;11.510;2022-09-24T05:17:19;95439.28;;;8.02;100.00
7662;BME280;30314;48.184;11.510;2022-09-24T05:19:47;95520.84;;;8.70;100.00
7662;BME280;30314;48.184;11.510;2022-09-24T05:22:16;95486.94;;;8.44;100.00
7662;BME280;30314;48.184;11.510;2022-09-24T05:24:44;95529.03;;;8.69;100.00
7662;BME280;30314;48.184;11.510;2022-09-24T05:27:11;95462.91;;;8.27;100.00
7662;BME280;30314;48.184;11.510;2022-09-24T05:29:39;95475.72;;;8.33;100.00
7662;BME280;30314;48.184;11.510;2022-09-24T05:32:10;95530.03;;;8.73;100.00
7662;BME280;30314;48.184;11.510;2022-09-24T05:34:41;95471.53;;;8.32;100.00
7662;BME280;30314;48.184;11.510;2022-09-24T05:37:09;95540.91;;;8.85;100.00
7662;BME280;30314;48.184;11.510;2022-09-24T05:39:39;95531.94;;;8.86;100.00
7662;BME280;30314;48.184;11.510;2022-09-24T05:42:08;95429.25;;;8.24;100.00
7662;BME280;30314;48.184;11.510;2022-09-24T05:44:39;95529.13;;;8.83;100.00
7662;BME280;30314;48.184;11.510;2022-09-24T05:47:08;95538.63;;;8.98;100.00
7662;BME280;30314;48.184;11.510;2022-09-24T05:49:36;95534.91;;;8.99;100.00
7662;BME280;30314;48.184;11.510;2022-09-24T05:52:05;95539.69;;;8.97;100.00
7662;BME280;30314;48.184;11.510;2022-09-24T05:54:34;95538.56;;;9.03;100.00
7662;BME280;30314;48.184;11.510;2022-09-24T05:57:03;95531.91;;;9.06;100.00
7662;BME280;30314;48.184;11.510;2022-09-24T05:59:30;95535.25;;;9.11;100.00
7662;BME280;30314;48.184;11.510;2022-09-24T06:01:58;95531.53;;;9.12;100.00
7662;BME280;30314;48.184;11.510;2022-09-24T06:04:26;95503.59;;;8.97;100.00
7662;BME280;30314;48.184;11.510;2022-09-24T06:06:54;95514.53;;;9.05;100.00
7662;BME280;30314;48.184;11.510;2022-09-24T06:09:22;95498.91;;;9.08;100.00
7662;BME280;30314;48.184;11.510;2022-09-24T06:11:50;95535.91;;;9.36;100.00
7662;BME280;30314;48.184;11.510;2022-09-24T06:14:21;95491.50;;;9.10;100.00
7662;BME280;30314;48.184;11.510;2022-09-24T06:16:49;95537.31;;;9.48;100.00
7662;BME280;30314;48.184;11.510;2022-09-24T06:19:18;95471.63;;;8.99;100.00
7662;BME280;30314;48.184;11.510;2022-09-24T06:21:45;95516.06;;;9.25;100.00
7662;BME280;30314;48.184;11.510;2022-09-24T06:24:14;95552.00;;;9.68;100.00
7662;BME280;30314;48.184;11.510;2022-09-24T06:26:42;95548.41;;;9.78;100.00
7662;BME280;30314;48.184;11.510;2022-09-24T06:29:10;95539.88;;;9.81;100.00
7662;BME280;30314;48.184;11.510;2022-09-24T06:31:39;95557.50;;;9.99;100.00
7662;BME280;30314;48.184;11.510;2022-09-24T06:34:07;95510.66;;;9.77;100.00
7662;BME280;30314;48.184;11.510;2022-09-24T06:36:35;95451.00;;;9.48;100.00
7662;BME280;30314;48.184;11.510;2022-09-24T06:39:02;95556.22;;;10.25;100.00
7662;BME280;30314;48.184;11.510;2022-09-24T06:41:30;95544.78;;;10.29;100.00
7662;BME280;30314;48.184;11.510;2022-09-24T06:43:58;95540.56;;;10.28;100.00
7662;BME280;30314;48.184;11.510;2022-09-24T06:46:27;95532.75;;;10.23;100.00
7662;BME280;30314;48.184;11.510;2022-09-24T06:48:57;95557.31;;;10.38;100.00
7662;BME280;30314;48.184;11.510;2022-09-24T06:51:24;95558.78;;;10.44;100.00
7662;BME280;30314;48.184;11.510;2022-09-24T06:53:52;95552.91;;;10.47;100.00
7662;BME280;30314;48.184;11.510;2022-09-24T06:56:20;95546.41;;;10.39;100.00
7662;BME280;30314;48.184;11.510;2022-09-24T06:58:48;95558.50;;;10.46;100.00
7662;BME280;30314;48.184;11.510;2022-09-24T07:01:16;95559.16;;;10.51;100.00
7662;BME280;30314;48.184;11.510;2022-09-24T07:03:44;95564.16;;;10.53;100.00
7662;BME280;30314;48.184;11.510;2022-09-24T07:06:13;95567.19;;;10.46;100.00
7662;BME280;30314;48.184;11.510;2022-09-24T07:08:41;95559.06;;;10.56;100.00
7662;BME280;30314;48.184;11.510;2022-09-24T07:11:08;95561.41;;;10.58;100.00
7662;BME280;30314;48.184;11.510;2022-09-24T07:13:36;95561.69;;;10.56;100.00
7662;BME280;30314;48.184;11.510;2022-09-24T07:16:04;95523.53;;;10.35;100.00
7662;BME280;30314;48.184;11.510;2022-09-24T07:18:32;95564.72;;;10.64;100.00
7662;BME280;30314;48.184;11.510;2022-09-24T07:21:00;95572.34;;;10.65;100.00
7662;BME280;30314;48.184;11.510;2022-09-24T07:23:29;95516.50;;;10.30;100.00
7662;BME280;30314;48.184;11.510;2022-09-24T07:25:56;95556.41;;;10.56;100.00
7662;BME280;30314;48.184;11.510;2022-09-24T07:28:25;95571.94;;;10.72;100.00
7662;BME280;30314;48.184;11.510;2022-09-24T07:30:58;95569.91;;;10.69;100.00
7662;BME280;30314;48.184;11.510;2022-09-24T07:33:26;95568.59;;;10.80;100.00
7662;BME280;30314;48.184;11.510;2022-09-24T07:35:53;95529.22;;;10.42;100.00
7662;BME280;30314;48.184;11.510;2022-09-24T07:38:21;95584.94;;;10.82;100.00
7662;BME280;30314;48.184;11.510;2022-09-24T07:40:50;95588.69;;;10.81;100.00
7662;BME280;30314;48.184;11.510;2022-09-24T07:43:20;95588.69;;;10.81;100.00
7662;BME280;30314;48.184;11.510;2022-09-24T07:45:48;95588.56;;;10.86;100.00
7662;BME280;30314;48.184;11.510;2022-09-24T07:48:15;95514.44;;;10.27;100.00
7662;BME280;30314;48.184;11.510;2022-09-24T07:50:43;95585.44;;;10.84;100.00
7662;BME280;30314;48.184;11.510;2022-09-24T07:53:12;95594.84;;;10.91;100.00
7662;BME280;30314;48.184;11.510;2022-09-24T07:55:41;95599.53;;;10.94;100.00
7662;BME280;30314;48.184;11.510;2022-09-24T07:58:12;95600.69;;;10.88;100.00
7662;BME280;30314;48.184;11.510;2022-09-24T08:00:40;95612.81;;;11.03;100.00
7662;BME280;30314;48.184;11.510;2022-09-24T08:03:08;95615.94;;;11.05;100.00
7662;BME280;30314;48.184;11.510;2022-09-24T08:05:41;95594.72;;;10.96;100.00
7662;BME280;30314;48.184;11.510;2022-09-24T08:08:09;95611.44;;;11.05;100.00
7662;BME280;30314;48.184;11.510;2022-09-24T08:10:37;95610.03;;;11.08;100.00
7662;BME280;30314;48.184;11.510;2022-09-24T08:13:05;95612.13;;;11.11;100.00
7662;BME280;30314;48.184;11.510;2022-09-24T08:15:34;95610.72;;;11.13;100.00
7662;BME280;30314;48.184;11.510;2022-09-24T08:18:03;95601.69;;;11.14;100.00
7662;BME280;30314;48.184;11.510;2022-09-24T08:20:32;95609.72;;;11.23;100.00
7662;BME280;30314;48.184;11.510;2022-09-24T08:23:00;95609.22;;;11.21;100.00
7662;BME280;30314;48.184;11.510;2022-09-24T08:25:28;95601.00;;;11.23;100.00
7662;BME280;30314;48.184;11.510;2022-09-24T08:28:00;95611.34;;;11.33;100.00
7662;BME280;30314;48.184;11.510;2022-09-24T08:30:28;95609.16;;;11.35;100.00
7662;BME280;30314;48.184;11.510;2022-09-24T08:32:57;95614.34;;;11.40;100.00
7662;BME280;30314;48.184;11.510;2022-09-24T08:35:25;95610.31;;;11.43;100.00
7662;BME280;30314;48.184;11.510;2022-09-24T08:37:53;95606.41;;;11.40;100.00
7662;BME280;30314;48.184;11.510;2022-09-24T08:40:23;95602.19;;;11.39;100.00
7662;BME280;30314;48.184;11.510;2022-09-24T08:42:58;95616.28;;;11.49;100.00
7662;BME280;30314;48.184;11.510;2022-09-24T08:45:40;95615.66;;;11.52;100.00
7662;BME280;30314;48.184;11.510;2022-09-24T08:48:32;95613.69;;;11.57;100.00
7662;BME280;30314;48.184;11.510;2022-09-24T08:51:06;95621.31;;;11.59;100.00
7662;BME280;30314;48.184;11.510;2022-09-24T08:53:43;95596.66;;;11.50;100.00
7662;BME280;30314;48.184;11.510;2022-09-24T08:56:13;95576.84;;;11.47;100.00
7662;BME280;30314;48.184;11.510;2022-09-24T08:58:47;95618.34;;;11.83;100.00
7662;BME280;30314;48.184;11.510;2022-09-24T09:01:24;95567.72;;;11.53;100.00
7662;BME280;30314;48.184;11.510;2022-09-24T09:04:02;95619.50;;;12.00;100.00
7662;BME280;30314;48.184;11.510;2022-09-24T09:06:49;95619.25;;;12.02;100.00
7662;BME280;30314;48.184;11.510;2022-09-24T09:09:23;95611.53;;;11.91;100.00
7662;BME280;30314;48.184;11.510;2022-09-24T09:11:56;95605.47;;;11.91;100.00
7662;BME280;30314;48.184;11.510;2022-09-24T09:14:33;95627.09;;;12.16;100.00
7662;BME280;30314;48.184;11.510;2022-09-24T09:17:16;95586.94;;;11.99;100.00
7662;BME280;30314;48.184;11.510;2022-09-24T09:19:54;95626.66;;;12.22;100.00
7662;BME280;30314;48.184;11.510;2022-09-24T09:22:26;95615.88;;;12.19;100.00
7662;BME280;30314;48.184;11.510;2022-09-24T09:24:59;95632.63;;;12.28;100.00
7662;BME280;30314;48.184;11.510;2022-09-24T09:27:30;95622.97;;;12.32;100.00
7662;BME280;30314;48.184;11.510;2022-09-24T09:30:02;95628.44;;;12.36;100.00
7662;BME280;30314;48.184;11.510;2022-09-24T09:32:47;95636.59;;;12.48;100.00
7662;BME280;30314;48.184;11.510;2022-09-24T09:35:28;95639.84;;;12.54;100.00
7662;BME280;30314;48.184;11.510;2022-09-24T09:38:03;95636.91;;;12.55;100.00
7662;BME280;30314;48.184;11.510;2022-09-24T09:40:36;95628.94;;;12.47;100.00
7662;BME280;30314;48.184;11.510;2022-09-24T09:43:08;95639.09;;;12.53;100.00
7662;BME280;30314;48.184;11.510;2022-09-24T09:45:41;95640.47;;;12.51;100.00
7662;BME280;30314;48.184;11.510;2022-09-24T09:48:12;95645.94;;;12.54;100.00
7662;BME280;30314;48.184;11.510;2022-09-24T09:50:44;95640.19;;;12.61;100.00
7662;BME280;30314;48.184;11.510;2022-09-24T09:53:20;95642.38;;;12.59;100.00
7662;BME280;30314;48.184;11.510;2022-09-24T09:55:53;95643.13;;;12.60;100.00
7662;BME280;30314;48.184;11.510;2022-09-24T09:58:23;95638.47;;;12.65;100.00
7662;BME280;30314;48.184;11.510;2022-09-24T10:01:02;95556.47;;;12.11;100.00
7662;BME280;30314;48.184;11.510;2022-09-24T10:03:31;95601.50;;;12.51;100.00
7662;BME280;30314;48.184;11.510;2022-09-24T10:06:11;95641.78;;;12.71;100.00
7662;BME280;30314;48.184;11.510;2022-09-24T10:08:39;95640.84;;;12.67;100.00
7662;BME280;30314;48.184;11.510;2022-09-24T10:11:14;95516.41;;;11.72;100.00
7662;BME280;30314;48.184;11.510;2022-09-24T10:13:42;95597.72;;;12.44;100.00
7662;BME280;30314;48.184;11.510;2022-09-24T10:16:13;95641.94;;;12.66;100.00
7662;BME280;30314;48.184;11.510;2022-09-24T10:18:45;95564.25;;;12.07;100.00
7662;BME280;30314;48.184;11.510;2022-09-24T10:21:27;95617.38;;;12.43;100.00
7662;BME280;30314;48.184;11.510;2022-09-24T10:23:59;95635.19;;;12.60;100.00
7662;BME280;30314;48.184;11.510;2022-09-24T10:26:34;95645.97;;;12.72;100.00
7662;BME280;30314;48.184;11.510;2022-09-24T10:29:12;95661.91;;;12.72;100.00
7662;BME280;30314;48.184;11.510;2022-09-24T10:32:14;95620.81;;;12.52;100.00
7662;BME280;30314;48.184;11.510;2022-09-24T10:34:53;95648.34;;;12.74;100.00
7662;BME280;30314;48.184;11.510;2022-09-24T10:37:26;95616.63;;;12.60;100.00
7662;BME280;30314;48.184;11.510;2022-09-24T10:39:59;95627.84;;;12.57;100.00
7662;BME280;30314;48.184;11.510;2022-09-24T10:42:29;95645.50;;;12.61;100.00
7662;BME280;30314;48.184;11.510;2022-09-24T10:44:58;95598.59;;;12.21;100.00
7662;BME280;30314;48.184;11.510;2022-09-24T10:47:32;95639.56;;;12.55;100.00
7662;BME280;30314;48.184;11.510;2022-09-24T10:50:20;95614.34;;;12.26;100.00
7662;BME280;30314;48.184;11.510;2022-09-24T10:52:56;95504.34;;;11.57;100.00
7662;BME280;30314;48.184;11.510;2022-09-24T10:55:40;95623.13;;;12.36;100.00
7662;BME280;30314;48.184;11.510;2022-09-24T10:58:26;95634.53;;;12.45;100.00
7662;BME280;30314;48.184;11.510;2022-09-24T11:01:03;95617.81;;;12.36;100.00
7662;BME280;30314;48.184;11.510;2022-09-24T11:03:46;95649.41;;;12.55;100.00
7662;BME280;30314;48.184;11.510;2022-09-24T11:06:24;95645.47;;;12.52;100.00
7662;BME280;30314;48.184;11.510;2022-09-24T11:09:16;95655.63;;;12.50;100.00
7662;BME280;30314;48.184;11.510;2022-09-24T11:11:58;95643.63;;;12.62;100.00
7662;BME280;30314;48.184;11.510;2022-09-24T11:14:45;95636.59;;;12.48;100.00
7662;BME280;30314;48.184;11.510;2022-09-24T11:17:26;95647.81;;;12.54;100.00
7662;BME280;30314;48.184;11.510;2022-09-24T11:20:28;95643.75;;;12.57;100.00
7662;BME280;30314;48.184;11.510;2022-09-24T11:23:18;95646.13;;;12.58;100.00
7662;BME280;30314;48.184;11.510;2022-09-24T11:25:58;95641.59;;;12.59;100.00
7662;BME280;30314;48.184;11.510;2022-09-24T11:31:26;95534.53;;;11.88;100.00
7662;BME280;30314;48.184;11.510;2022-09-24T11:34:14;95616.88;;;12.40;100.00
7662;BME280;30314;48.184;11.510;2022-09-24T11:36:58;95633.78;;;12.53;100.00
7662;BME280;30314;48.184;11.510;2022-09-24T11:39:45;95631.13;;;12.53;100.00
7662;BME280;30314;48.184;11.510;2022-09-24T11:42:23;95550.16;;;11.98;100.00
7662;BME280;30314;48.184;11.510;2022-09-24T11:45:20;95620.78;;;12.43;100.00
7662;BME280;30314;48.184;11.510;2022-09-24T11:48:06;95626.91;;;12.52;100.00
7662;BME280;30314;48.184;11.510;2022-09-24T11:50:48;95632.22;;;12.52;100.00
7662;BME280;30314;48.184;11.510;2022-09-24T11:53:28;95624.44;;;12.56;100.00
7662;BME280;30314;48.184;11.510;2022-09-24T11:56:02;95613.78;;;12.47;100.00
7662;BME280;30314;48.184;11.510;2022-09-24T11:58:42;95616.94;;;12.49;100.00
7662;BME280;30314;48.184;11.510;2022-09-24T12:01:13;95636.91;;;12.55;100.00
7662;BME280;30314;48.184;11.510;2022-09-24T12:03:46;95627.84;;;12.57;100.00
7662;BME280;30314;48.184;11.510;2022-09-24T12:06:24;95626.13;;;12.52;100.00
7662;BME280;30314;48.184;11.510;2022-09-24T12:08:59;95605.31;;;12.27;100.00
7662;BME280;30314;48.184;11.510;2022-09-24T12:11:34;95522.69;;;11.85;100.00
7662;BME280;30314;48.184;11.510;2022-09-24T12:14:21;95605.97;;;12.42;100.00
7662;BME280;30314;48.184;11.510;2022-09-24T12:17:00;95632.84;;;12.58;100.00
7662;BME280;30314;48.184;11.510;2022-09-24T12:19:32;95610.84;;;12.49;100.00
7662;BME280;30314;48.184;11.510;2022-09-24T12:22:12;95618.22;;;12.61;100.00
7662;BME280;30314;48.184;11.510;2022-09-24T12:24:44;95546.03;;;12.15;100.00
7662;BME280;30314;48.184;11.510;2022-09-24T12:27:25;95578.69;;;12.42;100.00
7662;BME280;30314;48.184;11.510;2022-09-24T12:30:00;95619.44;;;12.63;100.00
7662;BME280;30314;48.184;11.510;2022-09-24T12:32:51;95630.22;;;12.67;100.00
7662;BME280;30314;48.184;11.510;2022-09-24T12:35:43;95595.75;;;12.67;100.00
7662;BME280;30314;48.184;11.510;2022-09-24T12:38:15;95592.78;;;12.68;100.00
7662;BME280;30314;48.184;11.510;2022-09-24T12:41:16;95530.94;;;12.33;100.00
7662;BME280;30314;48.184;11.510;2022-09-24T12:43:50;95574.81;;;12.65;100.00
7662;BME280;30314;48.184;11.510;2022-09-24T12:46:22;95541.91;;;12.49;100.00
7662;BME280;30314;48.184;11.510;2022-09-24T12:48:52;95496.28;;;12.11;100.00
7662;BME280;30314;48.184;11.510;2022-09-24T12:51:21;95606.69;;;12.92;100.00
7662;BME280;30314;48.184;11.510;2022-09-24T12:54:05;95594.69;;;12.94;100.00
7662;BME280;30314;48.184;11.510;2022-09-24T12:56:34;95540.50;;;12.51;100.00
7662;BME280;30314;48.184;11.510;2022-09-24T12:59:02;95595.94;;;12.97;100.00
7662;BME280;30314;48.184;11.510;2022-09-24T13:01:38;95532.56;;;12.60;100.00
7662;BME280;30314;48.184;11.510;2022-09-24T13:04:24;95597.47;;;13.07;100.00
7662;BME280;30314;48.184;11.510;2022-09-24T13:06:52;95559.25;;;12.81;100.00
7662;BME280;30314;48.184;11.510;2022-09-24T13:09:34;95591.72;;;13.14;100.00
7662;BME280;30314;48.184;11.510;2022-09-24T13:12:16;95551.44;;;12.76;100.00
7662;BME280;30314;48.184;11.510;2022-09-24T13:14:48;95551.75;;;12.75;100.00
7662;BME280;30314;48.184;11.510;2022-09-24T13:17:19;95579.88;;;13.02;100.00
7662;BME280;30314;48.184;11.510;2022-09-24T13:19:48;95449.38;;;12.12;100.00
7662;BME280;30314;48.184;11.510;2022-09-24T13:22:26;95515.72;;;12.82;100.00
7662;BME280;30314;48.184;11.510;2022-09-24T13:25:17;95564.25;;;13.09;100.00
7662;BME280;30314;48.184;11.510;2022-09-24T13:27:56;95540.81;;;13.03;100.00
7662;BME280;30314;48.184;11.510;2022-09-24T13:30:31;95474.50;;;12.59;100.00
7662;BME280;30314;48.184;11.510;2022-09-24T13:33:12;95471.69;;;12.46;100.00
7662;BME280;30314;48.184;11.510;2022-09-24T13:35:49;95548.78;;;13.03;100.00